Terminal Aerodrome Forecast
Issued by NWS

Home | Current Version | Previous Version | Graphics & Text | Print | Product List | Glossary On
Versions: 1 2 3 4 5 6 7 8 9 10 11 12 13 14
973
FTUS43 KIWX 170520
TAFSBN
TAF
KSBN 170520Z 1706/1806 14009KT P6SM SCT120 BKN200
     FM171500 20008KT P6SM SKC=

USA.gov is the U.S. government's official web portal to all federal, state and local government web resources and services.